createdAt,value
2023-01-18T00:00:46.425Z,64.47
2023-01-18T00:03:22.984Z,63.88
2023-01-18T00:05:49.724Z,62.91
2023-01-18T00:08:16.587Z,62.20
2023-01-18T00:10:43.269Z,61.74
2023-01-18T00:13:11.171Z,60.98
2023-01-18T00:15:38.856Z,60.41
2023-01-18T00:18:05.995Z,58.82
2023-01-18T00:20:32.951Z,57.29
2023-01-18T00:23:04.026Z,57.39
2023-01-18T00:25:31.024Z,57.90
2023-01-18T00:27:57.962Z,58.78
2023-01-18T00:30:27.941Z,59.45
2023-01-18T00:32:57.770Z,60.31
2023-01-18T00:35:25.351Z,62.39
2023-01-18T00:37:53.217Z,64.68
2023-01-18T00:40:21.816Z,64.44
2023-01-18T00:43:07.892Z,64.00
2023-01-18T00:45:35.224Z,63.84
2023-01-18T00:48:02.400Z,62.20
2023-01-18T00:50:29.647Z,60.89
2023-01-18T00:52:58.333Z,60.24
2023-01-18T00:55:26.150Z,59.13
2023-01-18T00:57:52.844Z,57.82
2023-01-18T01:00:25.963Z,58.11
2023-01-18T01:02:53.500Z,59.54
2023-01-18T01:05:42.043Z,60.67
2023-01-18T01:08:16.252Z,62.41
2023-01-18T01:10:48.641Z,64.01
2023-01-18T01:13:35.234Z,63.90
2023-01-18T01:16:29.305Z,64.29
2023-01-18T01:19:15.504Z,63.05
2023-01-18T01:22:00.772Z,61.88
2023-01-18T01:24:46.407Z,61.54
2023-01-18T01:27:13.276Z,61.10
2023-01-18T01:29:40.507Z,60.88
2023-01-18T01:32:07.617Z,60.85
2023-01-18T01:34:35.334Z,60.56
2023-01-18T01:37:03.036Z,60.54
2023-01-18T01:39:30.389Z,60.62
2023-01-18T01:41:57.131Z,60.40
2023-01-18T01:44:33.596Z,60.39
2023-01-18T01:47:11.398Z,60.34
2023-01-18T01:49:42.612Z,60.43
2023-01-18T01:52:16.516Z,60.55
2023-01-18T01:55:24.274Z,60.93
2023-01-18T01:58:02.800Z,61.69
2023-01-18T02:00:30.128Z,61.17
2023-01-18T02:03:04.632Z,59.99
2023-01-18T02:05:35.125Z,59.94
2023-01-18T02:08:02.793Z,58.81
2023-01-18T02:10:29.980Z,58.27
2023-01-18T02:13:00.136Z,59.09
2023-01-18T02:15:47.476Z,60.07
2023-01-18T02:18:21.966Z,61.78
2023-01-18T02:21:07.563Z,63.90
2023-01-18T02:23:40.422Z,63.87
2023-01-18T02:26:27.018Z,63.46
2023-01-18T02:29:38.809Z,63.20
2023-01-18T02:32:12.310Z,62.85
2023-01-18T02:34:51.521Z,62.77
2023-01-18T02:37:36.406Z,63.44
2023-01-18T02:40:15.642Z,62.72
2023-01-18T02:43:03.472Z,60.47
2023-01-18T02:45:49.292Z,59.85
2023-01-18T02:48:20.100Z,58.64
2023-01-18T02:50:47.154Z,57.77
2023-01-18T02:53:14.629Z,58.41
2023-01-18T02:55:55.789Z,59.49
2023-01-18T02:58:30.197Z,60.16
2023-01-18T03:01:06.531Z,62.86
2023-01-18T03:03:35.459Z,65.68
2023-01-18T03:06:06.190Z,64.38
2023-01-18T03:08:41.847Z,63.69
2023-01-18T03:11:26.289Z,63.40
2023-01-18T03:13:55.901Z,63.85
2023-01-18T03:16:25.994Z,65.22
2023-01-18T03:19:31.963Z,63.46
2023-01-18T03:22:00.840Z,58.47
2023-01-18T03:24:29.963Z,55.88
2023-01-18T03:27:17.609Z,56.06
2023-01-18T03:30:04.610Z,56.47
2023-01-18T03:32:53.199Z,57.91
2023-01-18T03:35:26.350Z,59.04
2023-01-18T03:37:56.367Z,60.41
2023-01-18T03:40:28.130Z,62.67
2023-01-18T03:43:15.644Z,64.72
2023-01-18T03:45:44.881Z,65.13
2023-01-18T03:48:12.452Z,64.72
2023-01-18T03:51:01.880Z,64.26
2023-01-18T03:53:42.787Z,63.70
2023-01-18T03:56:18.201Z,62.83
2023-01-18T03:58:48.652Z,62.05
2023-01-18T04:01:15.902Z,61.48
2023-01-18T04:03:42.825Z,60.97
2023-01-18T04:06:09.659Z,60.69
2023-01-18T04:08:36.413Z,60.33
2023-01-18T04:11:03.147Z,60.25
2023-01-18T04:13:29.834Z,58.84
2023-01-18T04:15:56.455Z,57.25
2023-01-18T04:18:23.333Z,57.57
2023-01-18T04:20:55.759Z,58.28
2023-01-18T04:23:23.058Z,58.79
2023-01-18T04:25:50.935Z,57.20
2023-01-18T04:28:26.921Z,60.00
2023-01-18T04:30:55.683Z,62.49
2023-01-18T04:33:24.811Z,66.00
2023-01-18T04:35:53.682Z,67.30
2023-01-18T04:38:21.035Z,64.09
2023-01-18T04:40:47.723Z,62.46
2023-01-18T04:43:14.419Z,62.10
2023-01-18T04:45:41.038Z,61.63
2023-01-18T04:48:07.766Z,61.15
2023-01-18T04:50:34.716Z,60.54
2023-01-18T04:53:02.114Z,60.56
2023-01-18T04:55:28.908Z,60.40
2023-01-18T04:57:58.739Z,60.23
2023-01-18T05:00:25.444Z,60.11
2023-01-18T05:02:52.111Z,59.02
2023-01-18T05:05:18.868Z,57.52
2023-01-18T05:07:45.590Z,57.86
2023-01-18T05:10:12.728Z,58.68
2023-01-18T05:12:39.496Z,59.39
2023-01-18T05:15:07.092Z,60.41
2023-01-18T05:17:34.754Z,62.35
2023-01-18T05:20:03.825Z,64.56
2023-01-18T05:22:32.347Z,64.79
2023-01-18T05:24:59.543Z,64.48
2023-01-18T05:27:26.180Z,64.06
2023-01-18T05:29:53.055Z,63.59
2023-01-18T05:32:19.861Z,63.15
2023-01-18T05:34:46.504Z,62.68
2023-01-18T05:37:13.108Z,62.30
2023-01-18T05:39:39.793Z,61.83
2023-01-18T05:42:06.619Z,61.18
2023-01-18T05:44:33.506Z,60.59
2023-01-18T05:47:00.472Z,60.12
2023-01-18T05:49:28.684Z,58.77
2023-01-18T05:51:55.469Z,57.44
2023-01-18T05:54:22.468Z,57.85
2023-01-18T05:56:49.208Z,58.50
2023-01-18T05:59:16.100Z,59.27
2023-01-18T06:01:42.840Z,60.23
2023-01-18T06:04:09.703Z,62.10
2023-01-18T06:06:36.475Z,64.31
2023-01-18T06:09:03.460Z,64.46
2023-01-18T06:11:30.376Z,63.98
2023-01-18T06:13:57.115Z,63.62
2023-01-18T06:16:24.060Z,63.18
2023-01-18T06:18:51.093Z,62.33
2023-01-18T06:21:18.457Z,62.02
2023-01-18T06:23:45.163Z,61.92
2023-01-18T06:26:12.249Z,61.80
2023-01-18T06:28:39.083Z,61.41
2023-01-18T06:31:07.864Z,61.25
2023-01-18T06:33:34.787Z,61.04
2023-01-18T06:36:01.652Z,62.32
2023-01-18T06:38:29.215Z,63.07
2023-01-18T06:40:56.162Z,59.47
2023-01-18T06:43:23.209Z,56.57
2023-01-18T06:45:56.979Z,56.49
2023-01-18T06:48:25.795Z,57.01
2023-01-18T06:50:56.491Z,57.87
2023-01-18T06:53:23.997Z,58.85
2023-01-18T06:55:58.926Z,59.76
2023-01-18T06:58:27.583Z,60.41
2023-01-18T07:00:55.874Z,63.47
2023-01-18T07:03:25.347Z,66.47
2023-01-18T07:05:56.649Z,66.82
2023-01-18T07:08:24.193Z,64.17
2023-01-18T07:10:53.815Z,62.09
2023-01-18T07:13:22.590Z,61.14
2023-01-18T07:16:00.762Z,61.60
2023-01-18T07:18:30.930Z,58.85
2023-01-18T07:21:00.738Z,57.31
2023-01-18T07:23:28.900Z,57.29
2023-01-18T07:26:04.035Z,57.94
2023-01-18T07:28:32.020Z,58.76
2023-01-18T07:30:59.367Z,59.80
2023-01-18T07:33:27.333Z,60.64
2023-01-18T07:35:56.120Z,62.60
2023-01-18T07:38:23.835Z,65.01
2023-01-18T07:40:50.628Z,65.53
2023-01-18T07:43:17.700Z,65.01
2023-01-18T07:45:52.505Z,64.49
2023-01-18T07:48:20.303Z,64.23
2023-01-18T07:50:58.914Z,63.34
2023-01-18T07:53:29.831Z,62.76
2023-01-18T07:56:00.902Z,62.16
2023-01-18T07:58:28.154Z,61.59
2023-01-18T08:00:55.010Z,61.61
2023-01-18T08:03:21.985Z,61.19
2023-01-18T08:05:48.645Z,59.62
2023-01-18T08:08:17.453Z,57.49
2023-01-18T08:10:44.685Z,57.43
2023-01-18T08:13:11.441Z,58.19
2023-01-18T08:15:38.951Z,59.32
2023-01-18T08:18:07.627Z,60.27
2023-01-18T08:20:34.611Z,62.41
2023-01-18T08:23:02.099Z,65.00
2023-01-18T08:25:32.107Z,65.09
2023-01-18T08:28:00.347Z,64.89
2023-01-18T08:30:29.767Z,64.16
2023-01-18T08:32:59.104Z,63.27
2023-01-18T08:35:28.400Z,62.67
2023-01-18T08:37:55.818Z,62.06
2023-01-18T08:40:25.351Z,61.42
2023-01-18T08:43:01.090Z,60.86
2023-01-18T08:45:29.155Z,59.30
2023-01-18T08:48:01.768Z,57.63
2023-01-18T08:50:30.358Z,57.61
2023-01-18T08:52:59.652Z,58.39
2023-01-18T08:55:27.088Z,59.12
2023-01-18T08:57:54.415Z,59.99
2023-01-18T09:00:26.098Z,61.99
2023-01-18T09:02:54.261Z,64.54
2023-01-18T09:05:21.950Z,64.71
2023-01-18T09:07:50.288Z,63.40
2023-01-18T09:10:17.679Z,62.52
2023-01-18T09:12:44.841Z,61.98
2023-01-18T09:15:11.636Z,61.88
2023-01-18T09:17:38.498Z,61.33
2023-01-18T09:20:09.083Z,60.74
2023-01-18T09:22:36.573Z,60.18
2023-01-18T09:25:05.147Z,59.14
2023-01-18T09:27:33.012Z,57.76
2023-01-18T09:30:00.184Z,58.30
2023-01-18T09:32:26.896Z,58.89
2023-01-18T09:34:54.075Z,59.58
2023-01-18T09:37:21.201Z,60.54
2023-01-18T09:39:52.255Z,62.51
2023-01-18T09:42:23.641Z,64.99
2023-01-18T09:44:59.104Z,64.53
2023-01-18T09:47:30.721Z,63.97
2023-01-18T09:50:01.676Z,63.13
2023-01-18T09:52:50.588Z,62.48
2023-01-18T09:55:33.237Z,62.21
2023-01-18T09:58:25.231Z,61.84
2023-01-18T10:01:00.697Z,61.44
2023-01-18T10:03:35.184Z,60.64
2023-01-18T10:06:19.141Z,60.18
2023-01-18T10:08:52.736Z,59.24
2023-01-18T10:11:46.603Z,57.78
2023-01-18T10:14:22.301Z,57.44
2023-01-18T10:16:58.373Z,58.55
2023-01-18T10:19:28.584Z,59.55
2023-01-18T10:22:19.370Z,60.63
2023-01-18T10:24:53.403Z,62.93
2023-01-18T10:27:45.926Z,65.34
2023-01-18T10:30:32.307Z,64.87
2023-01-18T10:33:02.705Z,64.15
2023-01-18T10:35:35.247Z,63.42
2023-01-18T10:38:06.717Z,63.51
2023-01-18T10:40:35.153Z,62.81
2023-01-18T10:43:03.825Z,61.44
2023-01-18T10:45:34.509Z,61.17
2023-01-18T10:48:17.482Z,61.17
2023-01-18T10:50:48.282Z,61.17
2023-01-18T10:53:36.714Z,61.22
2023-01-18T10:56:09.674Z,61.50
2023-01-18T10:58:52.407Z,61.68
2023-01-18T11:01:27.874Z,61.19
2023-01-18T11:04:06.966Z,60.98
2023-01-18T11:06:49.034Z,61.57
2023-01-18T11:09:34.105Z,61.00
2023-01-18T11:12:33.407Z,61.10
2023-01-18T11:15:15.835Z,59.99
2023-01-18T11:18:05.905Z,58.17
2023-01-18T11:20:50.458Z,58.05
2023-01-18T11:23:20.476Z,60.44
2023-01-18T11:25:56.443Z,62.84
2023-01-18T11:28:36.998Z,64.17
2023-01-18T11:31:13.359Z,64.28
2023-01-18T11:33:49.522Z,64.18
2023-01-18T11:36:18.750Z,64.40
2023-01-18T11:38:46.149Z,65.51
2023-01-18T11:41:13.689Z,63.75
2023-01-18T11:44:08.023Z,63.11
2023-01-18T11:46:58.255Z,61.92
2023-01-18T11:50:16.975Z,62.08
2023-01-18T11:53:02.985Z,62.85
2023-01-18T11:55:41.003Z,62.59
2023-01-18T11:58:42.010Z,62.55
2023-01-18T12:01:28.207Z,62.57
2023-01-18T12:04:11.245Z,62.90
2023-01-18T12:06:45.968Z,63.10
2023-01-18T12:09:33.305Z,63.26
2023-01-18T12:12:22.182Z,63.38
2023-01-18T12:15:07.735Z,64.78
2023-01-18T12:17:47.376Z,65.17
2023-01-18T12:20:55.565Z,62.80
2023-01-18T12:23:45.461Z,60.47
2023-01-18T12:26:37.054Z,60.73
2023-01-18T12:29:38.535Z,61.24
2023-01-18T12:32:11.237Z,61.49
2023-01-18T12:34:55.559Z,61.80
2023-01-18T12:37:43.503Z,61.92
2023-01-18T12:40:34.937Z,62.23
2023-01-18T12:43:26.650Z,62.20
2023-01-18T12:46:08.625Z,62.27
2023-01-18T12:48:57.399Z,62.29
2023-01-18T12:51:29.319Z,62.47
2023-01-18T12:54:26.002Z,62.63
2023-01-18T12:56:55.787Z,62.42
2023-01-18T12:59:45.317Z,62.91
2023-01-18T13:02:12.095Z,62.69
2023-01-18T13:04:52.179Z,62.59
2023-01-18T13:07:25.902Z,62.05
2023-01-18T13:09:54.024Z,61.98
2023-01-18T13:12:21.339Z,61.80
2023-01-18T13:15:17.593Z,61.92
2023-01-18T13:18:13.258Z,62.02
2023-01-18T13:21:16.251Z,61.59
2023-01-18T13:23:59.373Z,61.39
2023-01-18T13:26:34.001Z,61.65
2023-01-18T13:29:29.126Z,61.23
2023-01-18T13:31:57.630Z,61.28
2023-01-18T13:34:47.405Z,61.52
2023-01-18T13:37:40.588Z,61.39
2023-01-18T13:40:30.005Z,61.43
2023-01-18T13:42:58.066Z,61.69
2023-01-18T13:45:27.889Z,61.98
2023-01-18T13:48:06.942Z,62.16
2023-01-18T13:50:34.193Z,62.35
2023-01-18T13:53:21.891Z,62.30
2023-01-18T13:55:54.578Z,62.25
2023-01-18T13:58:25.921Z,62.43
2023-01-18T14:00:57.681Z,62.27
2023-01-18T14:03:27.975Z,62.35
2023-01-18T14:05:56.788Z,62.46
2023-01-18T14:08:32.298Z,62.49
2023-01-18T14:11:08.997Z,62.51
2023-01-18T14:13:45.375Z,62.54
2023-01-18T14:16:24.474Z,62.68
2023-01-18T14:18:59.483Z,63.03
2023-01-18T14:21:52.683Z,63.22
2023-01-18T14:24:28.352Z,63.08
2023-01-18T14:26:57.092Z,63.25
2023-01-18T14:29:36.820Z,63.19
2023-01-18T14:32:07.561Z,63.16
2023-01-18T14:34:37.885Z,63.26
2023-01-18T14:37:29.357Z,63.29
2023-01-18T14:40:14.890Z,63.30
2023-01-18T14:42:48.015Z,63.27
2023-01-18T14:45:22.071Z,62.97
2023-01-18T14:47:50.858Z,62.92
2023-01-18T14:50:21.052Z,63.13
2023-01-18T14:52:51.993Z,63.18
2023-01-18T14:56:00.544Z,63.03
2023-01-18T14:58:27.340Z,63.04
2023-01-18T15:00:54.627Z,63.12
2023-01-18T15:03:25.951Z,63.03
2023-01-18T15:05:58.319Z,63.00
2023-01-18T15:08:27.516Z,63.04
2023-01-18T15:10:54.481Z,63.11
2023-01-18T15:13:26.015Z,62.90
2023-01-18T15:15:54.346Z,62.78
2023-01-18T15:18:24.553Z,62.86
2023-01-18T15:21:05.556Z,62.98
2023-01-18T15:23:35.740Z,63.06
2023-01-18T15:26:02.675Z,63.08
2023-01-18T15:28:33.486Z,63.14
2023-01-18T15:31:12.884Z,63.22
2023-01-18T15:33:40.686Z,63.12
2023-01-18T15:36:09.270Z,63.15
2023-01-18T15:38:36.731Z,63.19
2023-01-18T15:41:11.149Z,63.37
2023-01-18T15:43:43.669Z,63.33
2023-01-18T15:46:16.658Z,63.26
2023-01-18T15:48:54.241Z,63.19
2023-01-18T15:51:42.036Z,63.24
2023-01-18T15:54:17.074Z,63.17
2023-01-18T15:56:45.603Z,63.24
2023-01-18T15:59:20.381Z,63.25
2023-01-18T16:02:22.789Z,63.25
2023-01-18T16:05:07.812Z,63.12
2023-01-18T16:07:41.429Z,63.19
2023-01-18T16:10:20.255Z,63.28
2023-01-18T16:12:47.198Z,63.17
2023-01-18T16:15:27.763Z,63.21
2023-01-18T16:18:03.034Z,63.16
2023-01-18T16:20:33.372Z,63.13
2023-01-18T16:23:17.256Z,63.10
2023-01-18T16:25:51.486Z,62.99
2023-01-18T16:28:22.674Z,62.97
2023-01-18T16:30:52.902Z,63.00
2023-01-18T16:33:21.429Z,63.06
2023-01-18T16:35:48.794Z,63.09
2023-01-18T16:38:18.304Z,63.22
2023-01-18T16:40:50.967Z,63.30
2023-01-18T16:43:17.916Z,62.69
2023-01-18T16:45:46.638Z,62.75
2023-01-18T16:48:19.725Z,62.78
2023-01-18T16:50:47.405Z,62.86
2023-01-18T16:53:14.362Z,63.05
2023-01-18T16:55:43.593Z,63.13
2023-01-18T16:58:13.548Z,63.20
2023-01-18T17:01:05.721Z,63.25
2023-01-18T17:03:33.917Z,63.30
2023-01-18T17:06:00.659Z,63.45
2023-01-18T17:08:27.611Z,63.47
2023-01-18T17:10:55.299Z,63.44
2023-01-18T17:13:22.849Z,63.43
2023-01-18T17:15:51.685Z,63.26
2023-01-18T17:18:23.370Z,63.27
2023-01-18T17:20:50.415Z,63.25
2023-01-18T17:23:17.440Z,63.38
2023-01-18T17:25:45.158Z,63.50
2023-01-18T17:28:17.314Z,63.54
2023-01-18T17:30:46.978Z,63.59
2023-01-18T17:33:21.837Z,63.66
2023-01-18T17:35:53.504Z,63.67
2023-01-18T17:38:27.316Z,63.76
2023-01-18T17:40:56.025Z,63.79
2023-01-18T17:43:33.374Z,63.68
2023-01-18T17:46:05.893Z,63.68
2023-01-18T17:48:33.200Z,63.71
2023-01-18T17:51:00.118Z,63.64
2023-01-18T17:53:27.145Z,63.49
2023-01-18T17:55:54.375Z,63.48
2023-01-18T17:58:21.056Z,63.70
2023-01-18T18:00:48.258Z,63.83
2023-01-18T18:03:15.742Z,63.70
2023-01-18T18:05:43.241Z,63.57
2023-01-18T18:08:10.372Z,63.44
2023-01-18T18:10:36.998Z,63.33
2023-01-18T18:13:04.061Z,63.22
2023-01-18T18:15:31.052Z,63.23
2023-01-18T18:17:58.070Z,63.10
2023-01-18T18:20:24.749Z,63.01
2023-01-18T18:22:51.472Z,62.88
2023-01-18T18:25:18.492Z,62.91
2023-01-18T18:27:46.856Z,62.20
2023-01-18T18:30:16.086Z,61.86
2023-01-18T18:32:42.812Z,61.84
2023-01-18T18:35:24.212Z,61.75
2023-01-18T18:37:53.400Z,61.72
2023-01-18T18:40:20.877Z,61.43
2023-01-18T18:43:00.717Z,61.35
2023-01-18T18:45:30.588Z,61.35
2023-01-18T18:47:57.461Z,61.37
2023-01-18T18:50:24.093Z,61.31
2023-01-18T18:52:51.237Z,61.24
2023-01-18T18:55:18.591Z,61.06
2023-01-18T18:57:45.439Z,60.98
2023-01-18T19:00:12.894Z,60.90
2023-01-18T19:02:41.786Z,60.80
2023-01-18T19:05:10.396Z,60.63
2023-01-18T19:07:37.826Z,60.62
2023-01-18T19:10:08.602Z,60.53
2023-01-18T19:12:35.807Z,60.31
2023-01-18T19:15:03.465Z,60.28
2023-01-18T19:17:31.428Z,60.00
2023-01-18T19:20:00.395Z,59.99
2023-01-18T19:22:27.380Z,60.09
2023-01-18T19:24:54.320Z,60.23
2023-01-18T19:27:23.927Z,60.03
2023-01-18T19:29:52.605Z,59.99
2023-01-18T19:32:19.350Z,60.02
2023-01-18T19:34:46.606Z,59.80
2023-01-18T19:37:13.839Z,59.54
2023-01-18T19:39:40.817Z,58.96
2023-01-18T19:42:08.488Z,58.67
2023-01-18T19:44:35.927Z,60.57
2023-01-18T19:47:02.942Z,62.97
2023-01-18T19:49:30.714Z,63.30
2023-01-18T19:51:57.551Z,62.91
2023-01-18T19:54:24.518Z,62.30
2023-01-18T19:56:51.275Z,62.10
2023-01-18T19:59:18.411Z,61.57
2023-01-18T20:01:45.490Z,61.05
2023-01-18T20:04:15.165Z,60.66
2023-01-18T20:06:45.692Z,60.73
2023-01-18T20:09:19.513Z,60.61
2023-01-18T20:11:48.917Z,60.80
2023-01-18T20:14:17.762Z,60.41
2023-01-18T20:16:46.121Z,60.27
2023-01-18T20:19:14.852Z,61.45
2023-01-18T20:21:41.430Z,61.09
2023-01-18T20:24:08.762Z,59.02
2023-01-18T20:26:39.009Z,57.38
2023-01-18T20:29:08.101Z,58.82
2023-01-18T20:31:37.405Z,59.13
2023-01-18T20:34:05.219Z,60.59
2023-01-18T20:36:36.801Z,62.52
2023-01-18T20:39:04.961Z,63.28
2023-01-18T20:41:32.009Z,62.27
2023-01-18T20:43:59.165Z,61.71
2023-01-18T20:46:25.812Z,61.19
2023-01-18T20:48:52.748Z,61.15
2023-01-18T20:51:19.676Z,60.97
2023-01-18T20:53:46.624Z,61.42
2023-01-18T20:56:28.446Z,60.03
2023-01-18T20:58:56.587Z,59.01
2023-01-18T21:01:24.062Z,59.20
2023-01-18T21:03:54.920Z,61.08
2023-01-18T21:06:22.306Z,61.00
2023-01-18T21:08:53.283Z,63.03
2023-01-18T21:11:24.844Z,63.71
2023-01-18T21:13:56.524Z,62.93
2023-01-18T21:16:23.159Z,62.41
2023-01-18T21:18:52.217Z,61.94
2023-01-18T21:21:19.518Z,61.56
2023-01-18T21:23:47.055Z,61.26
2023-01-18T21:26:14.135Z,60.91
2023-01-18T21:28:41.089Z,60.71
2023-01-18T21:31:08.195Z,60.57
2023-01-18T21:33:35.128Z,60.25
2023-01-18T21:36:08.182Z,60.08
2023-01-18T21:38:35.782Z,60.09
2023-01-18T21:41:22.184Z,59.56
2023-01-18T21:44:07.463Z,58.60
2023-01-18T21:46:34.399Z,58.79
2023-01-18T21:49:06.259Z,59.61
2023-01-18T21:51:52.234Z,61.91
2023-01-18T21:54:21.593Z,63.15
2023-01-18T21:56:50.287Z,62.50
2023-01-18T21:59:17.106Z,62.15
2023-01-18T22:01:46.477Z,62.90
2023-01-18T22:04:33.798Z,62.18
2023-01-18T22:07:01.242Z,60.54
2023-01-18T22:09:29.326Z,58.15
2023-01-18T22:11:56.979Z,57.24
2023-01-18T22:14:25.352Z,58.33
2023-01-18T22:16:52.766Z,60.39
2023-01-18T22:19:19.781Z,61.43
2023-01-18T22:21:46.969Z,62.61
2023-01-18T22:24:13.803Z,63.62
2023-01-18T22:26:41.716Z,61.59
2023-01-18T22:29:08.950Z,60.37
2023-01-18T22:31:36.452Z,60.05
2023-01-18T22:34:05.510Z,59.13
2023-01-18T22:36:33.236Z,59.40
2023-01-18T22:38:59.853Z,59.58
2023-01-18T22:41:28.563Z,60.69
2023-01-18T22:43:56.412Z,60.62
2023-01-18T22:46:23.886Z,62.98
2023-01-18T22:48:51.759Z,64.35
2023-01-18T22:51:21.934Z,63.53
2023-01-18T22:53:49.900Z,62.87
2023-01-18T22:56:19.792Z,62.23
2023-01-18T22:58:47.483Z,61.98
2023-01-18T23:01:20.710Z,61.63
2023-01-18T23:03:48.537Z,61.08
2023-01-18T23:06:16.149Z,61.02
2023-01-18T23:08:43.440Z,60.86
2023-01-18T23:11:23.086Z,60.60
2023-01-18T23:14:14.137Z,60.17
2023-01-18T23:17:00.284Z,60.25
2023-01-18T23:19:29.578Z,60.21
2023-01-18T23:21:57.626Z,59.90
2023-01-18T23:24:24.911Z,59.83
2023-01-18T23:26:51.861Z,59.94
2023-01-18T23:29:19.509Z,59.73
2023-01-18T23:31:46.456Z,59.90
2023-01-18T23:34:13.402Z,59.86
2023-01-18T23:36:40.352Z,59.69
2023-01-18T23:39:25.822Z,59.75
2023-01-18T23:42:11.502Z,59.87
2023-01-18T23:44:57.084Z,59.92
2023-01-18T23:47:42.542Z,59.84
2023-01-18T23:50:29.018Z,59.68
2023-01-18T23:53:18.047Z,58.78
2023-01-18T23:55:45.500Z,57.53
2023-01-18T23:58:12.351Z,59.05
